sensor_id;sensor_type;location;lat;lon;timestamp;pressure;altitude;pressure_sealevel;temperature;humidity
64078;BME280;51039;49.696;10.808;2023-05-21T00:02:05;98168.78;;;17.11;75.32
64078;BME280;51039;49.696;10.808;2023-05-21T00:04:33;98153.78;;;17.10;75.47
64078;BME280;51039;49.696;10.808;2023-05-21T00:06:59;98159.59;;;17.07;75.82
64078;BME280;51039;49.696;10.808;2023-05-21T00:09:24;98160.19;;;17.09;75.64
64078;BME280;51039;49.696;10.808;2023-05-21T00:11:50;98155.88;;;17.08;75.67
64078;BME280;51039;49.696;10.808;2023-05-21T00:14:15;98162.28;;;17.07;75.65
64078;BME280;51039;49.696;10.808;2023-05-21T00:16:40;98149.97;;;17.06;75.82
64078;BME280;51039;49.696;10.808;2023-05-21T00:19:06;98159.88;;;17.05;75.96
64078;BME280;51039;49.696;10.808;2023-05-21T00:21:32;98154.78;;;17.04;76.06
64078;BME280;51039;49.696;10.808;2023-05-21T00:23:57;98158.00;;;17.06;75.93
64078;BME280;51039;49.696;10.808;2023-05-21T00:26:22;98141.41;;;17.04;76.35
64078;BME280;51039;49.696;10.808;2023-05-21T00:28:48;98148.88;;;17.02;76.18
64078;BME280;51039;49.696;10.808;2023-05-21T00:31:14;98142.19;;;17.04;76.11
64078;BME280;51039;49.696;10.808;2023-05-21T00:33:40;98135.25;;;17.03;76.27
64078;BME280;51039;49.696;10.808;2023-05-21T00:36:05;98129.56;;;17.00;76.40
64078;BME280;51039;49.696;10.808;2023-05-21T00:38:31;98130.06;;;16.97;76.83
64078;BME280;51039;49.696;10.808;2023-05-21T00:40:58;98134.31;;;16.93;77.29
64078;BME280;51039;49.696;10.808;2023-05-21T00:43:25;98134.22;;;16.87;77.34
64078;BME280;51039;49.696;10.808;2023-05-21T00:45:51;98133.66;;;16.85;77.56
64078;BME280;51039;49.696;10.808;2023-05-21T00:48:17;98132.88;;;16.85;77.46
64078;BME280;51039;49.696;10.808;2023-05-21T00:50:44;98130.44;;;16.83;77.74
64078;BME280;51039;49.696;10.808;2023-05-21T00:53:10;98139.53;;;16.82;77.75
64078;BME280;51039;49.696;10.808;2023-05-21T00:55:37;98135.97;;;16.77;78.21
64078;BME280;51039;49.696;10.808;2023-05-21T00:58:03;98126.81;;;16.73;78.42
64078;BME280;51039;49.696;10.808;2023-05-21T01:00:32;98134.84;;;16.73;78.42
64078;BME280;51039;49.696;10.808;2023-05-21T01:03:01;98134.53;;;16.69;78.69
64078;BME280;51039;49.696;10.808;2023-05-21T01:05:28;98135.56;;;16.68;78.90
64078;BME280;51039;49.696;10.808;2023-05-21T01:07:54;98132.56;;;16.64;79.23
64078;BME280;51039;49.696;10.808;2023-05-21T01:10:21;98136.00;;;16.60;79.23
64078;BME280;51039;49.696;10.808;2023-05-21T01:12:47;98127.97;;;16.60;79.36
64078;BME280;51039;49.696;10.808;2023-05-21T01:15:14;98134.63;;;16.57;79.49
64078;BME280;51039;49.696;10.808;2023-05-21T01:17:40;98134.63;;;16.57;79.54
64078;BME280;51039;49.696;10.808;2023-05-21T01:20:06;98132.22;;;16.56;79.78
64078;BME280;51039;49.696;10.808;2023-05-21T01:22:34;98136.47;;;16.57;79.62
64078;BME280;51039;49.696;10.808;2023-05-21T01:25:03;98126.06;;;16.55;79.80
64078;BME280;51039;49.696;10.808;2023-05-21T01:27:29;98126.84;;;16.56;79.72
64078;BME280;51039;49.696;10.808;2023-05-21T01:29:54;98123.38;;;16.55;79.82
64078;BME280;51039;49.696;10.808;2023-05-21T01:32:25;98126.28;;;16.54;79.94
64078;BME280;51039;49.696;10.808;2023-05-21T01:37:34;98122.75;;;16.48;80.36
64078;BME280;51039;49.696;10.808;2023-05-21T01:40:07;98129.97;;;16.47;80.27
64078;BME280;51039;49.696;10.808;2023-05-21T01:42:38;98128.25;;;16.41;80.87
64078;BME280;51039;49.696;10.808;2023-05-21T01:45:07;98121.06;;;16.42;80.72
64078;BME280;51039;49.696;10.808;2023-05-21T01:47:34;98123.97;;;16.40;81.04
64078;BME280;51039;49.696;10.808;2023-05-21T01:50:01;98122.66;;;16.43;80.96
64078;BME280;51039;49.696;10.808;2023-05-21T01:52:28;98123.75;;;16.42;80.78
64078;BME280;51039;49.696;10.808;2023-05-21T01:54:55;98115.97;;;16.40;80.98
64078;BME280;51039;49.696;10.808;2023-05-21T01:57:24;98115.63;;;16.37;81.33
64078;BME280;51039;49.696;10.808;2023-05-21T01:59:49;98118.00;;;16.33;81.42
64078;BME280;51039;49.696;10.808;2023-05-21T02:02:17;98117.44;;;16.31;81.70
64078;BME280;51039;49.696;10.808;2023-05-21T02:04:42;98118.16;;;16.26;81.96
64078;BME280;51039;49.696;10.808;2023-05-21T02:07:09;98118.41;;;16.25;82.36
64078;BME280;51039;49.696;10.808;2023-05-21T02:09:35;98122.38;;;16.22;82.38
64078;BME280;51039;49.696;10.808;2023-05-21T02:12:01;98119.41;;;16.19;82.52
64078;BME280;51039;49.696;10.808;2023-05-21T02:14:27;98119.88;;;16.16;82.70
64078;BME280;51039;49.696;10.808;2023-05-21T02:16:53;98115.56;;;16.15;82.80
64078;BME280;51039;49.696;10.808;2023-05-21T02:19:18;98122.72;;;16.09;83.08
64078;BME280;51039;49.696;10.808;2023-05-21T02:21:44;98113.25;;;16.01;83.54
64078;BME280;51039;49.696;10.808;2023-05-21T02:24:09;98111.88;;;15.99;83.89
64078;BME280;51039;49.696;10.808;2023-05-21T02:26:35;98104.34;;;15.96;84.03
64078;BME280;51039;49.696;10.808;2023-05-21T02:29:02;98109.94;;;15.94;83.89
64078;BME280;51039;49.696;10.808;2023-05-21T02:31:27;98109.06;;;15.88;84.39
64078;BME280;51039;49.696;10.808;2023-05-21T02:33:53;98105.47;;;15.83;85.04
64078;BME280;51039;49.696;10.808;2023-05-21T02:36:18;98107.81;;;15.79;85.08
64078;BME280;51039;49.696;10.808;2023-05-21T02:38:44;98098.13;;;15.73;85.36
64078;BME280;51039;49.696;10.808;2023-05-21T02:41:11;98105.22;;;15.67;85.57
64078;BME280;51039;49.696;10.808;2023-05-21T02:43:37;98105.44;;;15.66;86.20
64078;BME280;51039;49.696;10.808;2023-05-21T02:46:03;98097.09;;;15.62;86.49
64078;BME280;51039;49.696;10.808;2023-05-21T02:48:29;98098.16;;;15.61;86.58
64078;BME280;51039;49.696;10.808;2023-05-21T02:50:54;98102.44;;;15.62;86.79
64078;BME280;51039;49.696;10.808;2023-05-21T02:53:20;98093.88;;;15.60;86.95
64078;BME280;51039;49.696;10.808;2023-05-21T02:55:45;98095.72;;;15.60;87.09
64078;BME280;51039;49.696;10.808;2023-05-21T02:58:10;98104.22;;;15.57;87.37
64078;BME280;51039;49.696;10.808;2023-05-21T03:00:37;98102.03;;;15.54;87.28
64078;BME280;51039;49.696;10.808;2023-05-21T03:03:03;98103.09;;;15.52;87.54
64078;BME280;51039;49.696;10.808;2023-05-21T03:05:28;98095.31;;;15.51;87.79
64078;BME280;51039;49.696;10.808;2023-05-21T03:07:53;98098.72;;;15.46;88.44
64078;BME280;51039;49.696;10.808;2023-05-21T03:10:18;98103.47;;;15.44;88.46
64078;BME280;51039;49.696;10.808;2023-05-21T03:12:44;98100.25;;;15.42;88.69
64078;BME280;51039;49.696;10.808;2023-05-21T03:15:09;98101.03;;;15.43;89.11
64078;BME280;51039;49.696;10.808;2023-05-21T03:17:35;98100.25;;;15.42;89.00
64078;BME280;51039;49.696;10.808;2023-05-21T03:20:00;98098.53;;;15.36;89.21
64078;BME280;51039;49.696;10.808;2023-05-21T03:22:25;98107.03;;;15.33;89.82
64078;BME280;51039;49.696;10.808;2023-05-21T03:24:51;98099.00;;;15.33;89.59
64078;BME280;51039;49.696;10.808;2023-05-21T03:27:17;98104.25;;;15.28;90.13
64078;BME280;51039;49.696;10.808;2023-05-21T03:29:42;98104.50;;;15.26;90.07
64078;BME280;51039;49.696;10.808;2023-05-21T03:32:08;98108.22;;;15.25;90.37
64078;BME280;51039;49.696;10.808;2023-05-21T03:34:33;98104.59;;;15.31;90.17
64078;BME280;51039;49.696;10.808;2023-05-21T03:36:59;98105.06;;;15.28;90.34
64078;BME280;51039;49.696;10.808;2023-05-21T03:39:24;98104.59;;;15.31;90.16
64078;BME280;51039;49.696;10.808;2023-05-21T03:41:50;98105.06;;;15.28;90.32
64078;BME280;51039;49.696;10.808;2023-05-21T03:44:15;98105.06;;;15.28;90.67
64078;BME280;51039;49.696;10.808;2023-05-21T03:46:41;98107.50;;;15.30;90.52
64078;BME280;51039;49.696;10.808;2023-05-21T03:49:06;98104.13;;;15.35;90.39
64078;BME280;51039;49.696;10.808;2023-05-21T03:51:31;98112.13;;;15.35;90.33
64078;BME280;51039;49.696;10.808;2023-05-21T03:53:57;98109.22;;;15.36;90.27
64078;BME280;51039;49.696;10.808;2023-05-21T03:56:23;98111.66;;;15.38;90.34
64078;BME280;51039;49.696;10.808;2023-05-21T03:58:48;98109.56;;;15.40;90.43
64078;BME280;51039;49.696;10.808;2023-05-21T04:01:14;98108.81;;;15.44;90.07
64078;BME280;51039;49.696;10.808;2023-05-21T04:03:39;98113.13;;;15.45;90.10
64078;BME280;51039;49.696;10.808;2023-05-21T04:06:04;98109.47;;;15.51;90.00
64078;BME280;51039;49.696;10.808;2023-05-21T04:08:30;98113.53;;;15.54;89.93
64078;BME280;51039;49.696;10.808;2023-05-21T04:10:56;98119.53;;;15.61;89.60
64078;BME280;51039;49.696;10.808;2023-05-21T04:13:21;98126.00;;;15.65;89.18
64078;BME280;51039;49.696;10.808;2023-05-21T04:15:46;98119.59;;;15.66;89.47
64078;BME280;51039;49.696;10.808;2023-05-21T04:18:12;98128.88;;;15.76;88.96
64078;BME280;51039;49.696;10.808;2023-05-21T04:20:39;98125.78;;;15.84;88.67
64078;BME280;51039;49.696;10.808;2023-05-21T04:23:04;98128.97;;;15.81;89.07
64078;BME280;51039;49.696;10.808;2023-05-21T04:25:30;98128.31;;;15.90;88.77
64078;BME280;51039;49.696;10.808;2023-05-21T04:27:55;98127.66;;;16.00;88.13
64078;BME280;51039;49.696;10.808;2023-05-21T04:30:20;98117.38;;;16.09;87.79
64078;BME280;51039;49.696;10.808;2023-05-21T04:32:47;98123.91;;;16.18;87.38
64078;BME280;51039;49.696;10.808;2023-05-21T04:35:13;98129.47;;;16.34;86.55
64078;BME280;51039;49.696;10.808;2023-05-21T04:37:41;98131.09;;;16.52;85.96
64078;BME280;51039;49.696;10.808;2023-05-21T04:40:09;98124.81;;;16.63;85.26
64078;BME280;51039;49.696;10.808;2023-05-21T04:42:36;98117.78;;;16.79;84.32
64078;BME280;51039;49.696;10.808;2023-05-21T04:45:01;98120.44;;;16.96;83.63
64078;BME280;51039;49.696;10.808;2023-05-21T04:47:26;98124.09;;;17.12;83.12
64078;BME280;51039;49.696;10.808;2023-05-21T04:49:59;98124.00;;;17.29;82.73
64078;BME280;51039;49.696;10.808;2023-05-21T04:52:24;98131.88;;;17.40;81.37
64078;BME280;51039;49.696;10.808;2023-05-21T04:54:50;98128.25;;;17.52;80.90
64078;BME280;51039;49.696;10.808;2023-05-21T04:57:17;98130.75;;;17.63;79.90
64078;BME280;51039;49.696;10.808;2023-05-21T04:59:43;98134.56;;;17.67;79.77
64078;BME280;51039;49.696;10.808;2023-05-21T05:02:08;98138.69;;;17.80;78.66
64078;BME280;51039;49.696;10.808;2023-05-21T05:04:34;98141.09;;;17.82;78.86
64078;BME280;51039;49.696;10.808;2023-05-21T05:06:59;98137.25;;;18.00;77.92
64078;BME280;51039;49.696;10.808;2023-05-21T05:09:25;98136.09;;;18.23;76.76
64078;BME280;51039;49.696;10.808;2023-05-21T05:11:50;98133.06;;;18.52;75.58
64078;BME280;51039;49.696;10.808;2023-05-21T05:14:15;98141.28;;;18.82;74.39
64078;BME280;51039;49.696;10.808;2023-05-21T05:16:41;98139.84;;;19.43;72.00
64078;BME280;51039;49.696;10.808;2023-05-21T05:19:06;98135.34;;;20.05;69.72
64078;BME280;51039;49.696;10.808;2023-05-21T05:21:32;98141.22;;;20.38;67.60
64078;BME280;51039;49.696;10.808;2023-05-21T05:23:57;98130.97;;;20.71;66.35
64078;BME280;51039;49.696;10.808;2023-05-21T05:26:22;98134.28;;;21.17;65.26
64078;BME280;51039;49.696;10.808;2023-05-21T05:28:48;98129.47;;;21.04;64.61
64078;BME280;51039;49.696;10.808;2023-05-21T05:31:13;98139.88;;;21.26;63.92
64078;BME280;51039;49.696;10.808;2023-05-21T05:33:38;98127.13;;;22.16;61.54
64078;BME280;51039;49.696;10.808;2023-05-21T05:36:05;98135.75;;;22.47;59.96
64078;BME280;51039;49.696;10.808;2023-05-21T05:38:30;98125.91;;;23.05;58.33
64078;BME280;51039;49.696;10.808;2023-05-21T05:40:56;98127.28;;;23.02;58.39
64078;BME280;51039;49.696;10.808;2023-05-21T05:43:21;98126.78;;;22.23;60.33
64078;BME280;51039;49.696;10.808;2023-05-21T05:45:48;98123.28;;;22.22;60.63
64078;BME280;51039;49.696;10.808;2023-05-21T05:48:13;98120.97;;;21.76;61.82
64078;BME280;51039;49.696;10.808;2023-05-21T05:50:39;98118.44;;;21.90;61.87
64078;BME280;51039;49.696;10.808;2023-05-21T05:53:04;98124.59;;;21.95;61.46
64078;BME280;51039;49.696;10.808;2023-05-21T05:55:31;98121.50;;;22.07;60.69
64078;BME280;51039;49.696;10.808;2023-05-21T05:57:56;98117.09;;;22.51;59.56
64078;BME280;51039;49.696;10.808;2023-05-21T06:00:21;98123.69;;;23.31;56.90
64078;BME280;51039;49.696;10.808;2023-05-21T06:02:47;98125.28;;;23.70;54.76
64078;BME280;51039;49.696;10.808;2023-05-21T06:05:12;98122.31;;;24.04;54.28
64078;BME280;51039;49.696;10.808;2023-05-21T06:07:38;98112.34;;;23.10;55.11
64078;BME280;51039;49.696;10.808;2023-05-21T06:10:04;98117.91;;;23.19;56.57
64078;BME280;51039;49.696;10.808;2023-05-21T06:12:30;98119.81;;;23.56;54.26
64078;BME280;51039;49.696;10.808;2023-05-21T06:14:56;98112.28;;;24.05;53.54
64078;BME280;51039;49.696;10.808;2023-05-21T06:17:21;98118.41;;;23.40;54.55
64078;BME280;51039;49.696;10.808;2023-05-21T06:19:47;98117.84;;;23.00;55.17
64078;BME280;51039;49.696;10.808;2023-05-21T06:22:12;98108.94;;;23.23;54.78
64078;BME280;51039;49.696;10.808;2023-05-21T06:24:37;98106.63;;;22.68;55.68
64078;BME280;51039;49.696;10.808;2023-05-21T06:27:02;98116.31;;;22.93;55.54
64078;BME280;51039;49.696;10.808;2023-05-21T06:29:28;98117.19;;;23.32;54.33
64078;BME280;51039;49.696;10.808;2023-05-21T06:31:53;98111.66;;;24.27;51.67
64078;BME280;51039;49.696;10.808;2023-05-21T06:34:18;98105.41;;;24.26;50.16
64078;BME280;51039;49.696;10.808;2023-05-21T06:36:44;98109.94;;;25.28;48.48
64078;BME280;51039;49.696;10.808;2023-05-21T06:39:09;98114.69;;;25.45;47.63
64078;BME280;51039;49.696;10.808;2023-05-21T06:41:34;98116.28;;;25.46;47.74
64078;BME280;51039;49.696;10.808;2023-05-21T06:44:00;98101.75;;;26.10;46.31
64078;BME280;51039;49.696;10.808;2023-05-21T06:46:25;98102.84;;;26.31;45.12
64078;BME280;51039;49.696;10.808;2023-05-21T06:48:50;98099.94;;;27.25;43.21
64078;BME280;51039;49.696;10.808;2023-05-21T06:51:16;98101.69;;;27.82;42.25
64078;BME280;51039;49.696;10.808;2023-05-21T06:53:41;98100.44;;;25.98;44.71
64078;BME280;51039;49.696;10.808;2023-05-21T06:56:06;98102.25;;;26.43;44.50
64078;BME280;51039;49.696;10.808;2023-05-21T06:58:31;98100.72;;;27.69;41.65
64078;BME280;51039;49.696;10.808;2023-05-21T07:00:57;98090.88;;;28.20;41.00
64078;BME280;51039;49.696;10.808;2023-05-21T07:03:23;98099.44;;;28.49;40.67
64078;BME280;51039;49.696;10.808;2023-05-21T07:05:48;98107.28;;;29.10;39.67
64078;BME280;51039;49.696;10.808;2023-05-21T07:08:14;98101.88;;;28.80;39.39
64078;BME280;51039;49.696;10.808;2023-05-21T07:10:39;98103.19;;;28.27;40.56
64078;BME280;51039;49.696;10.808;2023-05-21T07:13:04;98103.06;;;26.92;42.59
64078;BME280;51039;49.696;10.808;2023-05-21T07:15:30;98107.75;;;27.18;42.14
64078;BME280;51039;49.696;10.808;2023-05-21T07:17:55;98100.75;;;27.34;41.93
64078;BME280;51039;49.696;10.808;2023-05-21T07:20:20;98103.06;;;26.83;42.50
64078;BME280;51039;49.696;10.808;2023-05-21T07:22:46;98099.69;;;26.78;42.74
64078;BME280;51039;49.696;10.808;2023-05-21T07:25:11;98112.47;;;26.77;42.60
64078;BME280;51039;49.696;10.808;2023-05-21T07:27:36;98105.13;;;26.78;42.77
64078;BME280;51039;49.696;10.808;2023-05-21T07:30:01;98098.81;;;27.78;40.12
64078;BME280;51039;49.696;10.808;2023-05-21T07:32:27;98096.91;;;27.44;41.14
64078;BME280;51039;49.696;10.808;2023-05-21T07:34:53;98107.00;;;27.70;41.80
64078;BME280;51039;49.696;10.808;2023-05-21T07:37:19;98084.88;;;27.71;41.02
64078;BME280;51039;49.696;10.808;2023-05-21T07:39:44;98100.69;;;27.87;41.30
64078;BME280;51039;49.696;10.808;2023-05-21T07:42:10;98102.16;;;28.57;39.58
64078;BME280;51039;49.696;10.808;2023-05-21T07:44:35;98098.00;;;28.51;38.49
64078;BME280;51039;49.696;10.808;2023-05-21T07:47:00;98101.78;;;28.68;38.18
64078;BME280;51039;49.696;10.808;2023-05-21T07:49:26;98104.88;;;29.17;37.58
64078;BME280;51039;49.696;10.808;2023-05-21T07:51:51;98106.66;;;30.92;34.17
64078;BME280;51039;49.696;10.808;2023-05-21T07:54:16;98096.97;;;30.45;34.11
64078;BME280;51039;49.696;10.808;2023-05-21T07:56:42;98098.78;;;29.41;36.01
64078;BME280;51039;49.696;10.808;2023-05-21T07:59:07;98097.03;;;29.15;36.46
64078;BME280;51039;49.696;10.808;2023-05-21T08:01:32;98102.72;;;28.25;38.15
64078;BME280;51039;49.696;10.808;2023-05-21T08:03:58;98096.00;;;28.22;38.14
64078;BME280;51039;49.696;10.808;2023-05-21T08:06:29;98099.66;;;30.33;35.19
64078;BME280;51039;49.696;10.808;2023-05-21T08:08:55;98108.41;;;31.25;33.02
64078;BME280;51039;49.696;10.808;2023-05-21T08:11:21;98109.66;;;29.83;34.87
64078;BME280;51039;49.696;10.808;2023-05-21T08:13:47;98110.59;;;29.66;35.28
64078;BME280;51039;49.696;10.808;2023-05-21T08:16:12;98098.09;;;31.59;32.79
64078;BME280;51039;49.696;10.808;2023-05-21T08:18:38;98109.81;;;31.87;32.13
64078;BME280;51039;49.696;10.808;2023-05-21T08:21:03;98102.66;;;31.42;32.43
64078;BME280;51039;49.696;10.808;2023-05-21T08:23:28;98107.09;;;31.06;33.00
64078;BME280;51039;49.696;10.808;2023-05-21T08:25:54;98108.84;;;30.16;34.09
64078;BME280;51039;49.696;10.808;2023-05-21T08:28:20;98129.06;;;30.36;33.96
64078;BME280;51039;49.696;10.808;2023-05-21T08:30:46;98118.63;;;30.17;33.77
64078;BME280;51039;49.696;10.808;2023-05-21T08:33:11;98105.28;;;30.03;34.31
64078;BME280;51039;49.696;10.808;2023-05-21T08:35:37;98107.56;;;30.84;33.19
64078;BME280;51039;49.696;10.808;2023-05-21T08:38:03;98110.06;;;31.82;32.20
64078;BME280;51039;49.696;10.808;2023-05-21T08:40:28;98112.19;;;31.20;33.17
64078;BME280;51039;49.696;10.808;2023-05-21T08:42:54;98118.00;;;31.19;33.13
64078;BME280;51039;49.696;10.808;2023-05-21T08:45:20;98108.44;;;33.05;30.85
64078;BME280;51039;49.696;10.808;2023-05-21T08:47:47;98100.81;;;33.14;30.69
64078;BME280;51039;49.696;10.808;2023-05-21T08:50:21;98097.97;;;31.55;32.24
64078;BME280;51039;49.696;10.808;2023-05-21T08:52:50;98109.50;;;30.59;34.13
64078;BME280;51039;49.696;10.808;2023-05-21T08:55:15;98100.69;;;29.41;36.03
64078;BME280;51039;49.696;10.808;2023-05-21T08:57:42;98102.50;;;30.37;34.37
64078;BME280;51039;49.696;10.808;2023-05-21T09:00:08;98081.00;;;29.14;36.43
64078;BME280;51039;49.696;10.808;2023-05-21T09:02:34;98090.88;;;29.82;35.63
64078;BME280;51039;49.696;10.808;2023-05-21T09:05:04;98093.53;;;29.69;35.29
64078;BME280;51039;49.696;10.808;2023-05-21T09:07:30;98102.28;;;29.42;35.86
64078;BME280;51039;49.696;10.808;2023-05-21T09:10:04;98096.56;;;29.34;36.46
64078;BME280;51039;49.696;10.808;2023-05-21T09:12:34;98096.13;;;27.44;40.14
64078;BME280;51039;49.696;10.808;2023-05-21T09:15:00;98094.81;;;27.76;39.87
64078;BME280;51039;49.696;10.808;2023-05-21T09:17:26;98100.72;;;27.69;40.49
64078;BME280;51039;49.696;10.808;2023-05-21T09:22:34;98100.41;;;27.79;40.48
64078;BME280;51039;49.696;10.808;2023-05-21T09:25:05;98086.13;;;28.09;40.22
64078;BME280;51039;49.696;10.808;2023-05-21T09:27:32;98100.47;;;28.35;39.74
64078;BME280;51039;49.696;10.808;2023-05-21T09:29:57;98092.19;;;28.14;39.90
64078;BME280;51039;49.696;10.808;2023-05-21T09:32:22;98091.06;;;28.15;38.84
64078;BME280;51039;49.696;10.808;2023-05-21T09:34:47;98096.69;;;29.17;37.66
64078;BME280;51039;49.696;10.808;2023-05-21T09:37:14;98101.50;;;29.11;37.24
64078;BME280;51039;49.696;10.808;2023-05-21T09:39:40;98094.56;;;28.72;37.65
64078;BME280;51039;49.696;10.808;2023-05-21T09:42:06;98096.97;;;29.24;36.21
64078;BME280;51039;49.696;10.808;2023-05-21T09:44:31;98100.31;;;28.70;36.88
64078;BME280;51039;49.696;10.808;2023-05-21T09:46:58;98103.34;;;29.28;36.57
64078;BME280;51039;49.696;10.808;2023-05-21T09:49:24;98099.09;;;28.59;37.26
64078;BME280;51039;49.696;10.808;2023-05-21T09:51:53;98101.38;;;29.08;37.13
64078;BME280;51039;49.696;10.808;2023-05-21T09:54:21;98095.22;;;28.22;38.40
64078;BME280;51039;49.696;10.808;2023-05-21T09:56:47;98102.56;;;28.30;37.94
64078;BME280;51039;49.696;10.808;2023-05-21T09:59:13;98102.56;;;28.21;38.84
64078;BME280;51039;49.696;10.808;2023-05-21T10:01:39;98103.28;;;29.16;36.40
64078;BME280;51039;49.696;10.808;2023-05-21T10:04:07;98100.09;;;28.84;35.77
64078;BME280;51039;49.696;10.808;2023-05-21T10:06:33;98100.72;;;27.95;37.44
64078;BME280;51039;49.696;10.808;2023-05-21T10:09:04;98093.53;;;27.65;38.40
64078;BME280;51039;49.696;10.808;2023-05-21T10:11:34;98107.91;;;27.83;38.21
64078;BME280;51039;49.696;10.808;2023-05-21T10:14:04;98089.94;;;28.16;37.09
64078;BME280;51039;49.696;10.808;2023-05-21T10:16:32;98087.59;;;27.97;37.91
64078;BME280;51039;49.696;10.808;2023-05-21T10:18:58;98099.59;;;27.79;38.34
64078;BME280;51039;49.696;10.808;2023-05-21T10:21:25;98095.34;;;28.25;38.71
64078;BME280;51039;49.696;10.808;2023-05-21T10:23:52;98097.22;;;27.34;39.76
64078;BME280;51039;49.696;10.808;2023-05-21T10:26:18;98094.94;;;27.10;40.12
64078;BME280;51039;49.696;10.808;2023-05-21T10:28:47;98091.91;;;27.20;39.95
64078;BME280;51039;49.696;10.808;2023-05-21T10:31:14;98084.56;;;27.81;38.98
64078;BME280;51039;49.696;10.808;2023-05-21T10:33:40;98085.50;;;27.86;39.36
64078;BME280;51039;49.696;10.808;2023-05-21T10:36:06;98088.38;;;28.07;38.81
64078;BME280;51039;49.696;10.808;2023-05-21T10:38:32;98090.16;;;27.76;38.73
64078;BME280;51039;49.696;10.808;2023-05-21T10:40:57;98090.72;;;28.26;38.57
64078;BME280;51039;49.696;10.808;2023-05-21T10:46:23;98074.19;;;28.99;36.92
64078;BME280;51039;49.696;10.808;2023-05-21T10:51:44;98072.19;;;28.49;38.60
64078;BME280;51039;49.696;10.808;2023-05-21T10:55:04;98068.59;;;27.63;40.08
64078;BME280;51039;49.696;10.808;2023-05-21T10:59:57;98073.19;;;27.10;41.86
64078;BME280;51039;49.696;10.808;2023-05-21T11:02:24;98074.66;;;27.25;41.54
64078;BME280;51039;49.696;10.808;2023-05-21T11:04:56;98072.41;;;27.44;40.91
64078;BME280;51039;49.696;10.808;2023-05-21T11:07:27;98077.25;;;27.30;41.02
64078;BME280;51039;49.696;10.808;2023-05-21T11:13:11;98059.44;;;26.97;41.55
64078;BME280;51039;49.696;10.808;2023-05-21T11:21:05;98064.25;;;27.18;40.32
64078;BME280;51039;49.696;10.808;2023-05-21T11:26:57;98068.13;;;27.43;41.32
64078;BME280;51039;49.696;10.808;2023-05-21T11:29:12;98053.50;;;27.04;41.14
64078;BME280;51039;49.696;10.808;2023-05-21T11:31:38;98059.78;;;27.57;39.88
64078;BME280;51039;49.696;10.808;2023-05-21T11:36:38;98051.28;;;27.76;40.40
64078;BME280;51039;49.696;10.808;2023-05-21T11:39:13;98047.00;;;28.61;38.68
64078;BME280;51039;49.696;10.808;2023-05-21T11:42:00;98038.69;;;28.10;38.62
64078;BME280;51039;49.696;10.808;2023-05-21T11:44:42;98045.75;;;28.11;38.86
64078;BME280;51039;49.696;10.808;2023-05-21T11:47:12;98042.16;;;28.28;38.74
64078;BME280;51039;49.696;10.808;2023-05-21T11:49:39;98037.38;;;29.14;38.35
64078;BME280;51039;49.696;10.808;2023-05-21T11:52:05;98036.09;;;29.32;36.94
64078;BME280;51039;49.696;10.808;2023-05-21T11:54:32;98032.53;;;29.11;37.70
64078;BME280;51039;49.696;10.808;2023-05-21T11:57:05;98032.47;;;29.41;36.51
64078;BME280;51039;49.696;10.808;2023-05-21T11:59:31;98037.63;;;29.21;36.30
64078;BME280;51039;49.696;10.808;2023-05-21T12:01:58;98034.97;;;29.33;36.59
64078;BME280;51039;49.696;10.808;2023-05-21T12:04:30;98033.34;;;29.11;35.60
64078;BME280;51039;49.696;10.808;2023-05-21T12:06:56;98030.41;;;28.74;36.60
64078;BME280;51039;49.696;10.808;2023-05-21T12:09:24;98033.72;;;28.12;37.29
64078;BME280;51039;49.696;10.808;2023-05-21T12:11:50;98032.84;;;27.81;38.12
64078;BME280;51039;49.696;10.808;2023-05-21T12:14:15;98029.66;;;27.88;37.68
64078;BME280;51039;49.696;10.808;2023-05-21T12:16:41;98025.22;;;27.49;38.15
64078;BME280;51039;49.696;10.808;2023-05-21T12:19:07;98028.03;;;27.78;37.93
64078;BME280;51039;49.696;10.808;2023-05-21T12:21:32;98026.97;;;27.18;37.36
64078;BME280;51039;49.696;10.808;2023-05-21T12:23:59;98026.50;;;27.42;36.21
64078;BME280;51039;49.696;10.808;2023-05-21T12:26:25;98025.22;;;27.22;36.94
64078;BME280;51039;49.696;10.808;2023-05-21T12:28:51;98023.31;;;27.32;37.31
64078;BME280;51039;49.696;10.808;2023-05-21T12:31:18;98032.22;;;27.76;36.87
64078;BME280;51039;49.696;10.808;2023-05-21T12:33:46;98038.13;;;27.69;36.44
64078;BME280;51039;49.696;10.808;2023-05-21T12:36:25;98028.16;;;27.99;35.82
64078;BME280;51039;49.696;10.808;2023-05-21T12:38:54;98023.38;;;27.79;36.49
64078;BME280;51039;49.696;10.808;2023-05-21T12:41:21;98030.94;;;27.91;36.49
64078;BME280;51039;49.696;10.808;2023-05-21T12:43:47;98031.81;;;28.12;35.37
64078;BME280;51039;49.696;10.808;2023-05-21T12:46:12;98026.94;;;28.27;34.28
64078;BME280;51039;49.696;10.808;2023-05-21T12:48:46;98028.69;;;28.31;34.77
64078;BME280;51039;49.696;10.808;2023-05-21T12:51:13;98026.25;;;27.83;34.89
64078;BME280;51039;49.696;10.808;2023-05-21T12:53:40;98017.91;;;28.05;34.97
64078;BME280;51039;49.696;10.808;2023-05-21T12:56:06;98021.63;;;27.92;35.29
64078;BME280;51039;49.696;10.808;2023-05-21T12:58:35;98017.34;;;27.65;35.08
64078;BME280;51039;49.696;10.808;2023-05-21T13:01:04;98018.41;;;27.81;35.45
64078;BME280;51039;49.696;10.808;2023-05-21T13:03:33;98022.75;;;27.73;35.98
64078;BME280;51039;49.696;10.808;2023-05-21T13:06:01;98022.94;;;27.68;36.06
64078;BME280;51039;49.696;10.808;2023-05-21T13:08:29;98017.81;;;27.75;35.98
64078;BME280;51039;49.696;10.808;2023-05-21T13:10:54;98011.16;;;27.38;36.35
64078;BME280;51039;49.696;10.808;2023-05-21T13:13:20;98014.50;;;27.52;36.65
64078;BME280;51039;49.696;10.808;2023-05-21T13:15:45;98013.53;;;27.13;36.93